Time;durP1;ratioP1;P1;durP2;ratioP2;P2;SDS_P1;SDS_P2;PMS_P1;PMS_P2;Temp;Humidity;BMP_temperature;BMP_pressure;BME280_temperature;BME280_humidity;BME280_pressure;Samples;Min_cycle;Max_cycle;Signal;HPM_P1;HPM_P2
2020/12/05 00:01:30;;;;;;;11.35;6.78;;;;;;;0.10;93.98;97770.63;5136265;27;20035;-73
2020/12/05 00:03:55;;;;;;;12.15;6.30;;;;;;;0.09;94.15;97773.66;5134169;27;20035;-73
2020/12/05 00:06:24;;;;;;;10.65;6.07;;;;;;;0.09;94.06;97769.00;5135842;27;20038;-73
2020/12/05 00:08:50;;;;;;;8.15;5.93;;;;;;;0.07;93.92;97773.13;5134938;27;20023;-73
2020/12/05 00:11:16;;;;;;;9.90;5.68;;;;;;;0.05;93.75;97773.41;5134838;27;20547;-73
2020/12/05 00:13:41;;;;;;;12.07;6.28;;;;;;;0.02;93.89;97773.19;5119182;27;20375;-73
2020/12/05 00:16:07;;;;;;;12.45;6.20;;;;;;;0.01;93.61;97774.31;5137671;27;20027;-73
2020/12/05 00:18:32;;;;;;;9.52;5.60;;;;;;;-0.01;93.83;97771.84;5135998;27;20096;-73
2020/12/05 00:20:58;;;;;;;8.80;5.57;;;;;;;-0.03;93.81;97777.63;5135488;27;20030;-73
2020/12/05 00:23:24;;;;;;;11.30;5.95;;;;;;;-0.04;93.85;97775.16;5134754;27;20357;-73
2020/12/05 00:25:49;;;;;;;11.77;5.75;;;;;;;-0.05;93.97;97766.19;5137420;27;20057;-73
2020/12/05 00:28:15;;;;;;;10.02;6.13;;;;;;;-0.08;93.97;97761.31;5136208;27;20398;-73
2020/12/05 00:30:40;;;;;;;9.88;6.10;;;;;;;-0.10;93.62;97763.50;5098163;27;20076;-73
2020/12/05 00:33:06;;;;;;;11.82;6.03;;;;;;;-0.11;93.83;97761.88;5132933;27;20039;-73
2020/12/05 00:35:31;;;;;;;12.35;5.65;;;;;;;-0.13;93.79;97761.38;5137559;27;20034;-73
2020/12/05 00:37:57;;;;;;;11.70;6.10;;;;;;;-0.15;93.54;97758.09;5133868;27;20027;-73
2020/12/05 00:40:23;;;;;;;7.90;5.32;;;;;;;-0.17;93.72;97759.50;5135184;27;20046;-73
2020/12/05 00:42:49;;;;;;;10.50;5.38;;;;;;;-0.18;93.58;97757.88;5134766;27;20030;-73
2020/12/05 00:45:15;;;;;;;11.15;5.40;;;;;;;-0.20;93.56;97762.81;5118924;27;20032;-73
2020/12/05 00:47:40;;;;;;;10.80;5.03;;;;;;;-0.23;93.64;97759.56;5118752;27;20042;-73
2020/12/05 00:50:06;;;;;;;11.02;5.65;;;;;;;-0.24;93.76;97760.66;5130859;27;20027;-73
2020/12/05 00:52:31;;;;;;;8.60;5.40;;;;;;;-0.25;93.80;97760.97;5123826;27;20494;-73
2020/12/05 00:54:57;;;;;;;11.45;5.35;;;;;;;-0.26;93.87;97759.31;5135707;27;20039;-73
2020/12/05 00:57:22;;;;;;;8.98;5.55;;;;;;;-0.28;93.96;97761.53;5135768;27;20038;-73
2020/12/05 00:59:48;;;;;;;6.25;4.40;;;;;;;-0.29;93.89;97766.19;5134138;27;20027;-73
2020/12/05 01:02:13;;;;;;;8.68;5.40;;;;;;;-0.30;93.84;97769.22;5132588;27;20044;-73
2020/12/05 01:04:39;;;;;;;9.13;5.28;;;;;;;-0.31;93.63;97773.03;5138586;27;20038;-73
2020/12/05 01:07:04;;;;;;;9.18;4.93;;;;;;;-0.33;93.54;97776.06;5133972;27;20495;-73
2020/12/05 01:09:30;;;;;;;9.07;5.03;;;;;;;-0.35;93.85;97772.78;5133745;27;20077;-73
2020/12/05 01:11:56;;;;;;;10.23;5.32;;;;;;;-0.36;93.87;97776.63;5132831;27;20113;-73
2020/12/05 01:14:21;;;;;;;12.70;5.43;;;;;;;-0.36;93.81;97776.63;5136810;27;20039;-73
2020/12/05 01:16:47;;;;;;;9.27;5.10;;;;;;;-0.38;93.72;97778.84;5109560;27;20080;-73
2020/12/05 01:19:12;;;;;;;10.20;5.10;;;;;;;-0.39;93.53;97788.13;5136504;27;20395;-73
2020/12/05 01:21:38;;;;;;;9.57;5.35;;;;;;;-0.41;93.44;97784.88;5116534;27;20035;-73
2020/12/05 01:24:03;;;;;;;9.35;5.28;;;;;;;-0.43;93.48;97780.81;5118019;28;20035;-73
2020/12/05 01:26:29;;;;;;;9.65;5.38;;;;;;;-0.43;93.38;97778.88;5136569;27;20042;-73
2020/12/05 01:28:54;;;;;;;9.55;5.18;;;;;;;-0.45;93.52;97783.81;5133515;27;20045;-73
2020/12/05 01:31:20;;;;;;;9.48;5.22;;;;;;;-0.47;93.60;97775.94;5119525;27;20024;-73
2020/12/05 01:33:46;;;;;;;10.30;5.20;;;;;;;-0.49;93.38;97774.59;5136562;27;20043;-73
2020/12/05 01:36:11;;;;;;;8.27;5.30;;;;;;;-0.50;93.57;97784.69;5135125;28;20547;-73
2020/12/05 01:38:37;;;;;;;10.40;5.50;;;;;;;-0.51;93.70;97787.69;5132515;27;20027;-73
2020/12/05 01:41:03;;;;;;;10.30;5.85;;;;;;;-0.52;93.70;97797.78;5116268;27;20034;-73
2020/12/05 01:43:29;;;;;;;10.13;5.57;;;;;;;-0.55;93.51;97805.72;5135407;28;20031;-73
2020/12/05 01:45:58;;;;;;;11.18;5.63;;;;;;;-0.55;93.65;97808.47;5133967;27;20088;-73
2020/12/05 01:48:23;;;;;;;10.43;5.95;;;;;;;-0.56;93.52;97812.28;5127040;27;20087;-73
2020/12/05 01:50:49;;;;;;;8.65;5.65;;;;;;;-0.58;93.45;97806.31;5132293;27;20471;-73
2020/12/05 01:53:15;;;;;;;10.10;5.97;;;;;;;-0.59;93.62;97804.66;5135145;28;20035;-73
2020/12/05 01:55:50;;;;;;;10.30;5.70;;;;;;;-0.60;93.51;97805.78;5128090;27;20105;-73
2020/12/05 01:58:15;;;;;;;10.82;5.90;;;;;;;-0.61;93.42;97806.84;5118743;28;20479;-73
2020/12/05 02:00:42;;;;;;;9.95;6.07;;;;;;;-0.62;93.62;97803.31;5133527;27;20046;-73
2020/12/05 02:03:07;;;;;;;10.88;6.30;;;;;;;-0.62;93.77;97807.97;5117900;27;20023;-73
2020/12/05 02:05:52;;;;;;;11.27;6.30;;;;;;;-0.64;93.58;97801.97;5101075;28;20058;-73
2020/12/05 02:08:23;;;;;;;10.07;5.60;;;;;;;-0.64;93.83;97796.53;5134312;27;20073;-73
2020/12/05 02:10:49;;;;;;;9.57;6.30;;;;;;;-0.66;93.80;97796.03;5133118;27;20454;-73
2020/12/05 02:13:20;;;;;;;11.20;6.15;;;;;;;-0.66;93.72;97794.13;5134215;27;20027;-73
2020/12/05 02:15:45;;;;;;;10.32;5.90;;;;;;;-0.66;93.95;97796.84;5127323;28;20038;-73
2020/12/05 02:18:11;;;;;;;10.30;6.15;;;;;;;-0.66;93.79;97787.84;5107589;28;20031;-73
2020/12/05 02:20:37;;;;;;;8.25;5.78;;;;;;;-0.66;93.89;97794.13;5114964;28;20413;-73
2020/12/05 02:23:15;;;;;;;10.30;6.25;;;;;;;-0.68;93.99;97791.66;5133203;27;20027;-73
2020/12/05 02:25:59;;;;;;;10.35;6.15;;;;;;;-0.66;94.05;97794.13;5135557;27;20153;-73
2020/12/05 02:28:25;;;;;;;12.63;6.07;;;;;;;-0.67;93.88;97792.47;5134056;27;20033;-73
2020/12/05 02:30:50;;;;;;;12.15;6.32;;;;;;;-0.68;93.77;97791.66;5116605;28;20410;-73
2020/12/05 02:33:17;;;;;;;10.15;6.47;;;;;;;-0.68;93.86;97788.94;5131469;27;20035;-73
2020/12/05 02:35:43;;;;;;;11.82;6.10;;;;;;;-0.68;93.88;97794.38;5136792;27;20089;-73
2020/12/05 02:38:18;;;;;;;11.73;5.70;;;;;;;-0.69;93.89;97795.50;5130417;28;20027;-73
2020/12/05 02:40:44;;;;;;;10.98;5.88;;;;;;;-0.69;93.90;97794.69;5134215;27;20051;-73
2020/12/05 02:43:10;;;;;;;8.23;5.65;;;;;;;-0.69;93.88;97789.25;5136903;27;20417;-73
2020/12/05 02:45:37;;;;;;;9.40;6.00;;;;;;;-0.71;94.03;97786.78;5119144;27;20042;-73
2020/12/05 02:48:03;;;;;;;12.07;6.18;;;;;;;-0.69;93.88;97783.78;5137287;27;20027;-73
2020/12/05 02:50:28;;;;;;;10.88;5.97;;;;;;;-0.70;94.10;97788.44;5130452;27;20061;-73
2020/12/05 02:52:54;;;;;;;10.02;6.07;;;;;;;-0.70;94.28;97788.44;5118256;27;20562;-73
2020/12/05 02:55:20;;;;;;;13.73;6.30;;;;;;;-0.69;94.08;97791.97;5117985;27;20108;-73
2020/12/05 02:57:45;;;;;;;11.13;5.55;;;;;;;-0.68;94.05;97796.31;5087586;27;20034;-73
2020/12/05 03:00:11;;;;;;;10.73;6.38;;;;;;;-0.69;94.21;97800.13;5137581;27;20039;-73
2020/12/05 03:02:36;;;;;;;11.00;5.80;;;;;;;-0.68;94.17;97796.31;5135446;27;20027;-73
2020/12/05 03:05:02;;;;;;;9.35;5.50;;;;;;;-0.68;94.07;97791.66;5119477;27;20051;-73
2020/12/05 03:07:28;;;;;;;9.18;6.07;;;;;;;-0.68;94.26;97782.69;5139091;27;20073;-73
2020/12/05 03:09:53;;;;;;;10.77;5.68;;;;;;;-0.66;94.27;97779.69;5129130;27;20421;-73
2020/12/05 03:12:19;;;;;;;11.48;5.97;;;;;;;-0.65;94.33;97771.19;5116412;28;20035;-73
2020/12/05 03:14:44;;;;;;;11.15;5.72;;;;;;;-0.65;94.37;97773.91;5116302;27;20023;-73
2020/12/05 03:17:10;;;;;;;9.50;5.90;;;;;;;-0.64;94.51;97770.13;5128904;27;20050;-73
2020/12/05 03:19:35;;;;;;;10.10;5.07;;;;;;;-0.63;94.23;97765.47;5129246;27;20027;-73
2020/12/05 03:22:01;;;;;;;10.55;6.18;;;;;;;-0.63;94.28;97758.09;5136919;27;20494;-73
2020/12/05 03:24:27;;;;;;;11.38;5.82;;;;;;;-0.61;94.60;97747.72;5136014;27;20034;-73
2020/12/05 03:26:52;;;;;;;14.35;5.72;;;;;;;-0.59;94.61;97750.16;5120647;27;20031;-73
2020/12/05 03:29:18;;;;;;;11.32;6.15;;;;;;;-0.59;94.52;97741.97;5135286;27;20031;-73
2020/12/05 03:32:08;;;;;;;11.77;6.20;;;;;;;-0.58;94.55;97749.88;5135570;27;20508;-73
2020/12/05 03:34:30;;;;;;;11.15;6.25;;;;;;;-0.57;94.96;97732.41;5132801;27;20050;-73
2020/12/05 03:36:55;;;;;;;12.35;6.32;;;;;;;-0.55;94.89;97741.13;5137040;27;20447;-73
2020/12/05 03:39:21;;;;;;;16.40;6.93;;;;;;;-0.53;94.97;97740.81;5118902;27;20039;-73
2020/12/05 03:41:46;;;;;;;11.68;6.68;;;;;;;-0.52;95.15;97751.44;5134707;27;20042;-73
2020/12/05 03:44:12;;;;;;;10.18;6.40;;;;;;;-0.49;95.25;97752.78;5132255;27;20015;-73
2020/12/05 03:46:37;;;;;;;11.45;6.65;;;;;;;-0.47;95.48;97745.13;5135315;27;20027;-73
2020/12/05 03:49:04;;;;;;;9.68;6.78;;;;;;;-0.45;95.53;97745.63;5137388;27;20038;-73
2020/12/05 03:51:29;;;;;;;11.27;6.57;;;;;;;-0.41;95.42;97743.97;5133590;27;20037;-73
2020/12/05 03:53:55;;;;;;;14.68;6.97;;;;;;;-0.39;95.42;97743.66;5132100;27;20020;-73
2020/12/05 03:56:21;;;;;;;14.35;6.82;;;;;;;-0.36;95.45;97743.06;5130617;27;20046;-73
2020/12/05 03:58:46;;;;;;;13.95;6.75;;;;;;;-0.34;95.58;97735.41;5137192;27;20028;-73
2020/12/05 04:01:12;;;;;;;13.07;7.18;;;;;;;-0.33;95.62;97743.31;5126659;27;20027;-73
2020/12/05 04:03:37;;;;;;;13.07;7.35;;;;;;;-0.29;95.59;97744.34;5134734;27;20038;-73
2020/12/05 04:06:03;;;;;;;13.00;7.53;;;;;;;-0.27;95.79;97741.34;5119740;27;20696;-73
2020/12/05 04:08:29;;;;;;;16.73;8.15;;;;;;;-0.25;95.69;97739.16;5128380;27;20046;-73
2020/12/05 04:10:55;;;;;;;12.75;6.63;;;;;;;-0.23;96.14;97735.00;5133469;27;20039;-73
2020/12/05 04:13:21;;;;;;;13.00;7.22;;;;;;;-0.19;95.84;97740.72;5131447;27;20027;-73
2020/12/05 04:15:47;;;;;;;13.63;7.75;;;;;;;-0.16;95.67;97740.13;5131704;27;20411;-73
2020/12/05 04:18:12;;;;;;;14.52;7.97;;;;;;;-0.13;95.98;97745.00;5136728;27;20059;-73
2020/12/05 04:20:38;;;;;;;13.20;7.55;;;;;;;-0.11;96.08;97741.97;5126496;27;20036;-73
2020/12/05 04:23:03;;;;;;;12.90;7.57;;;;;;;-0.09;96.08;97746.03;5130161;27;20028;-73
2020/12/05 04:25:29;;;;;;;15.38;8.48;;;;;;;-0.07;96.03;97745.75;5130915;27;20517;-73
2020/12/05 04:27:54;;;;;;;17.67;9.52;;;;;;;-0.07;95.93;97737.56;5137783;27;20039;-73
2020/12/05 04:30:20;;;;;;;13.25;8.10;;;;;;;-0.05;95.97;97740.81;5138661;27;20035;-73
2020/12/05 04:32:46;;;;;;;16.35;8.88;;;;;;;-0.03;96.18;97733.13;5133893;27;20047;-73
2020/12/05 04:35:11;;;;;;;14.27;8.75;;;;;;;-0.01;96.24;97733.66;5131485;27;20084;-72
2020/12/05 04:37:37;;;;;;;14.80;8.30;;;;;;;-0.01;95.94;97731.72;5126875;27;20042;-73
2020/12/05 04:40:03;;;;;;;12.23;8.27;;;;;;;0.02;95.96;97735.78;5116085;27;20085;-73
2020/12/05 04:42:29;;;;;;;12.60;7.88;;;;;;;0.02;96.15;97735.78;5132451;27;20023;-73
2020/12/05 04:44:55;;;;;;;12.68;7.68;;;;;;;0.04;95.79;97730.06;5129822;27;20049;-73
2020/12/05 04:47:21;;;;;;;12.05;8.25;;;;;;;0.05;95.90;97728.94;5135956;27;20024;-73
2020/12/05 04:49:46;;;;;;;14.80;7.80;;;;;;;0.06;95.95;97725.94;5133240;27;20035;-73
2020/12/05 04:52:20;;;;;;;13.38;7.57;;;;;;;0.08;95.95;97731.88;5117716;27;20027;-73
2020/12/05 04:54:50;;;;;;;13.02;8.00;;;;;;;0.10;96.08;97731.59;5134014;27;20023;-73
2020/12/05 04:57:18;;;;;;;17.20;7.97;;;;;;;0.09;96.04;97733.53;5137054;27;20478;-73
2020/12/05 04:59:43;;;;;;;12.05;7.10;;;;;;;0.11;96.29;97744.13;5131847;27;20034;-73
2020/12/05 05:02:09;;;;;;;14.10;7.78;;;;;;;0.11;96.28;97735.94;5116064;27;20035;-73
2020/12/05 05:04:35;;;;;;;15.35;7.22;;;;;;;0.13;96.05;97747.38;5132438;27;20029;-73
2020/12/05 05:07:04;;;;;;;14.02;7.13;;;;;;;0.13;96.32;97748.19;5128760;27;20031;-73
2020/12/05 05:09:29;;;;;;;9.57;6.80;;;;;;;0.15;96.17;97742.47;5116175;27;20027;-73
2020/12/05 05:11:55;;;;;;;12.15;6.95;;;;;;;0.16;96.32;97735.88;5127802;27;20038;-73
2020/12/05 05:14:31;;;;;;;11.95;7.00;;;;;;;0.17;96.22;97732.88;5131970;27;20042;-73
2020/12/05 05:17:06;;;;;;;13.48;6.35;;;;;;;0.18;96.29;97730.94;5133609;27;20057;-73
2020/12/05 05:19:35;;;;;;;11.40;6.30;;;;;;;0.18;96.31;97734.47;5126635;27;20027;-73
2020/12/05 05:22:01;;;;;;;13.40;6.90;;;;;;;0.20;96.41;97729.56;5131108;27;20035;-73
2020/12/05 05:24:27;;;;;;;11.48;6.30;;;;;;;0.21;96.56;97725.72;5130952;27;20034;-73
2020/12/05 05:27:00;;;;;;;11.50;5.78;;;;;;;0.22;96.54;97730.06;5135533;27;20027;-71
2020/12/05 05:29:33;;;;;;;9.07;5.80;;;;;;;0.23;96.64;97733.63;5136995;27;20090;-71
2020/12/05 05:32:18;;;;;;;7.50;4.20;;;;;;;0.24;96.78;97729.75;5133214;27;20035;-71
2020/12/05 05:34:46;;;;;;;9.65;5.78;;;;;;;0.26;96.86;97726.75;5119662;28;20027;-71
2020/12/05 05:37:18;;;;;;;12.60;6.00;;;;;;;0.26;96.71;97730.28;5121608;27;20027;-71
2020/12/05 05:39:44;;;;;;;12.57;5.82;;;;;;;0.27;96.85;97736.56;5117213;27;20073;-73
2020/12/05 05:42:09;;;;;;;10.48;5.60;;;;;;;0.27;96.66;97740.09;5135369;27;20043;-73
2020/12/05 05:44:35;;;;;;;9.77;5.57;;;;;;;0.29;96.83;97732.44;5133755;27;20031;-73
2020/12/05 05:47:01;;;;;;;8.60;5.38;;;;;;;0.30;97.26;97725.03;5116179;27;20031;-73
2020/12/05 05:49:31;;;;;;;10.45;5.50;;;;;;;0.30;96.91;97725.03;5116641;28;20035;-73
2020/12/05 05:51:58;;;;;;;8.77;5.00;;;;;;;0.31;96.94;97729.41;5129018;27;20024;-74
2020/12/05 05:54:31;;;;;;;10.68;4.85;;;;;;;0.32;97.13;97731.03;5121097;27;20038;-74
2020/12/05 05:57:04;;;;;;;11.43;4.68;;;;;;;0.33;97.00;97727.19;5111681;28;20106;-74
2020/12/05 05:59:40;;;;;;;10.27;4.82;;;;;;;0.32;97.25;97725.56;5133319;27;20042;-74
2020/12/05 06:02:07;;;;;;;6.38;4.72;;;;;;;0.34;97.34;97726.91;5128150;27;20031;-74
2020/12/05 06:04:40;;;;;;;10.23;4.95;;;;;;;0.34;97.29;97735.09;5112304;28;20028;-74
2020/12/05 06:07:07;;;;;;;8.82;4.60;;;;;;;0.36;97.30;97732.06;5109492;28;20046;-74
2020/12/05 06:09:35;;;;;;;9.07;5.05;;;;;;;0.37;97.00;97730.97;5121936;27;20051;-74
2020/12/05 06:12:00;;;;;;;7.82;3.85;;;;;;;0.38;97.23;97736.13;5136169;27;20031;-74
2020/12/05 06:14:26;;;;;;;8.20;3.97;;;;;;;0.37;97.21;97731.78;5116785;28;20079;-74
2020/12/05 06:16:53;;;;;;;10.25;3.80;;;;;;;0.40;97.39;97739.38;5127565;27;20028;-73
2020/12/05 06:19:19;;;;;;;7.82;3.97;;;;;;;0.41;97.14;97734.72;5104210;27;20047;-74
2020/12/05 06:21:48;;;;;;;6.20;3.63;;;;;;;0.41;97.28;97734.72;5137519;27;20031;-74
2020/12/05 06:24:14;;;;;;;6.15;3.70;;;;;;;0.42;97.44;97733.63;5136631;27;20058;-73
2020/12/05 06:26:40;;;;;;;6.78;3.67;;;;;;;0.43;97.55;97737.97;5118797;27;20073;-73
2020/12/05 06:29:06;;;;;;;8.95;3.80;;;;;;;0.46;97.41;97736.56;5120157;27;20027;-74
2020/12/05 06:31:45;;;;;;;58.13;26.88;;;;;;;0.63;97.09;97726.72;5089668;27;20049;-74
2020/12/05 06:34:32;;;;;;;50.83;23.30;;;;;;;0.62;97.20;97729.78;5137782;27;20525;-74
2020/12/05 06:36:58;;;;;;;43.22;20.02;;;;;;;0.61;97.46;97720.78;5125096;27;20403;-74
2020/12/05 06:39:24;;;;;;;41.42;18.55;;;;;;;0.62;97.12;97724.31;5127648;27;20043;-74
2020/12/05 06:41:50;;;;;;;36.92;18.25;;;;;;;0.63;97.35;97720.47;5134308;27;20032;-74
2020/12/05 06:44:19;;;;;;;36.60;16.23;;;;;;;0.64;97.76;97722.91;5132978;27;20019;-74
2020/12/05 06:46:55;;;;;;;36.33;16.73;;;;;;;0.64;97.39;97713.88;5131366;27;20060;-74
2020/12/05 06:49:37;;;;;;;33.78;15.20;;;;;;;0.66;97.72;97720.66;5134232;27;20107;-74
2020/12/05 06:52:24;;;;;;;33.03;15.13;;;;;;;0.68;97.83;97719.56;5131239;27;20114;-74
2020/12/05 06:54:56;;;;;;;28.67;13.73;;;;;;;0.69;98.01;97715.72;5137288;27;20387;-74
2020/12/05 06:57:25;;;;;;;27.70;13.10;;;;;;;0.70;97.77;97714.59;5136982;27;20020;-74
2020/12/05 06:59:51;;;;;;;25.25;11.52;;;;;;;0.72;98.15;97707.72;5131239;27;20050;-74
2020/12/05 07:02:33;;;;;;;20.67;10.45;;;;;;;0.74;98.19;97702.00;5133907;27;20391;-74
2020/12/05 07:05:18;;;;;;;20.88;9.98;;;;;;;0.76;98.20;97695.13;5136116;27;20027;-74
2020/12/05 07:07:44;;;;;;;17.27;8.40;;;;;;;0.79;98.50;97702.72;5134975;27;20035;-74
2020/12/05 07:10:09;;;;;;;13.82;6.88;;;;;;;0.82;98.87;97701.31;5136326;27;20031;-74
2020/12/05 07:12:42;;;;;;;15.43;7.35;;;;;;;0.85;98.67;97700.72;5137867;27;20046;-74
2020/12/05 07:15:27;;;;;;;15.70;6.53;;;;;;;0.86;98.82;97694.97;5133184;27;20042;-74
2020/12/05 07:17:53;;;;;;;13.63;6.60;;;;;;;0.89;98.87;97697.09;5135048;27;20510;-74
2020/12/05 07:20:19;;;;;;;12.57;5.80;;;;;;;0.93;99.01;97696.47;5136530;27;20023;-74
2020/12/05 07:22:46;;;;;;;7.88;4.45;;;;;;;0.96;99.09;97674.81;5137354;27;20414;-74
2020/12/05 07:25:12;;;;;;;9.65;4.75;;;;;;;0.99;99.44;97679.69;5133890;27;20102;-74
2020/12/05 07:27:38;;;;;;;8.50;4.22;;;;;;;1.01;99.42;97677.47;5134553;27;20103;-74
2020/12/05 07:30:05;;;;;;;8.65;5.07;;;;;;;1.02;99.19;97679.09;5133250;27;20425;-74
2020/12/05 07:32:35;;;;;;;7.55;4.22;;;;;;;1.04;99.18;97676.88;5119199;27;20051;-74
2020/12/05 07:35:02;;;;;;;10.68;4.10;;;;;;;1.06;99.22;97685.59;5134525;27;20035;-74
2020/12/05 07:37:27;;;;;;;8.23;4.40;;;;;;;1.09;99.22;97670.50;5132365;27;20027;-74
2020/12/05 07:39:54;;;;;;;7.45;3.95;;;;;;;1.09;99.35;97679.50;5139259;27;20105;-75
2020/12/05 07:42:19;;;;;;;10.70;3.95;;;;;;;1.13;99.21;97684.38;5121130;27;20031;-74
2020/12/05 07:44:45;;;;;;;7.68;3.83;;;;;;;1.15;99.47;97688.44;5133975;27;20414;-74
2020/12/05 07:47:20;;;;;;;7.70;3.58;;;;;;;1.16;99.45;97690.03;5136149;27;20027;-74
2020/12/05 07:49:52;;;;;;;7.20;3.72;;;;;;;1.18;99.25;97692.50;5133702;27;20399;-74
2020/12/05 07:52:21;;;;;;;7.80;3.30;;;;;;;1.21;99.30;97708.28;5130668;27;20035;-74
2020/12/05 07:54:59;;;;;;;7.15;3.90;;;;;;;1.22;99.35;97704.44;5137409;27;20053;-74
2020/12/05 07:57:26;;;;;;;7.68;3.50;;;;;;;1.23;99.27;97704.13;5092197;27;20034;-74
2020/12/05 08:00:11;;;;;;;6.63;2.90;;;;;;;1.24;99.51;97705.75;5136982;27;20023;-74
2020/12/05 08:02:53;;;;;;;5.20;3.15;;;;;;;1.26;99.45;97719.94;5137484;27;20027;-74
2020/12/05 08:05:40;;;;;;;6.55;3.38;;;;;;;1.29;99.49;97727.53;5118533;27;20031;-75
2020/12/05 08:08:06;;;;;;;5.68;3.20;;;;;;;1.29;99.27;97722.06;5116580;28;20036;-74
2020/12/05 08:10:33;;;;;;;8.85;3.45;;;;;;;1.32;99.53;97726.13;5084237;27;20505;-74
2020/12/05 08:13:13;;;;;;;8.43;3.03;;;;;;;1.35;99.68;97722.78;5118676;27;20023;-74
2020/12/05 08:15:39;;;;;;;5.38;3.15;;;;;;;1.36;99.43;97715.38;5134595;27;20039;-74
2020/12/05 08:18:05;;;;;;;5.75;2.72;;;;;;;1.37;99.36;97709.63;5115195;28;20040;-74
2020/12/05 08:20:31;;;;;;;7.10;2.83;;;;;;;1.38;99.36;97724.91;5132273;27;20051;-74
2020/12/05 08:22:58;;;;;;;6.90;3.10;;;;;;;1.39;99.38;97715.59;5134707;27;20023;-71
2020/12/05 08:25:25;;;;;;;8.02;2.80;;;;;;;1.47;100.00;97714.09;5133772;27;20114;-71
2020/12/05 08:27:51;;;;;;;9.48;3.10;;;;;;;1.56;100.00;97721.28;5113638;27;20505;-71
2020/12/05 08:30:17;;;;;;;7.22;3.40;;;;;;;1.61;100.00;97727.78;5114320;27;20019;-73
2020/12/05 08:32:42;;;;;;;9.50;3.08;;;;;;;1.64;100.00;97721.69;5084706;27;20047;-73
2020/12/05 08:35:09;;;;;;;5.82;3.00;;;;;;;1.67;100.00;97721.06;5132597;27;20360;-73
2020/12/05 08:37:35;;;;;;;4.65;2.55;;;;;;;1.68;100.00;97723.53;5126643;27;20047;-73
2020/12/05 08:40:00;;;;;;;9.60;3.15;;;;;;;1.69;100.00;97714.19;5133311;27;20076;-74
2020/12/05 08:42:26;;;;;;;8.80;2.83;;;;;;;1.71;100.00;97713.91;5129589;27;20039;-74
2020/12/05 08:44:52;;;;;;;6.72;2.90;;;;;;;1.72;100.00;97701.81;5133812;27;20027;-74
2020/12/05 08:47:17;;;;;;;7.28;2.88;;;;;;;1.73;100.00;97717.16;5101484;27;20493;-74
2020/12/05 08:49:48;;;;;;;4.88;2.50;;;;;;;1.75;100.00;97712.97;5106820;27;20164;-73
2020/12/05 08:52:14;;;;;;;5.63;2.67;;;;;;;1.76;100.00;97719.28;5119139;27;20398;-75
2020/12/05 08:54:50;;;;;;;8.30;2.55;;;;;;;1.81;100.00;97726.56;5135020;27;20027;-73
2020/12/05 08:57:16;;;;;;;9.15;2.90;;;;;;;1.83;100.00;97729.81;5133150;27;20037;-74
2020/12/05 08:59:42;;;;;;;6.28;2.75;;;;;;;1.84;100.00;97732.25;5131696;27;20042;-74
2020/12/05 09:02:09;;;;;;;6.32;2.47;;;;;;;1.86;100.00;97732.72;5135832;27;20026;-74
2020/12/05 09:04:36;;;;;;;4.63;2.80;;;;;;;1.87;100.00;97737.09;5127720;27;20054;-74
2020/12/05 09:07:12;;;;;;;7.18;3.05;;;;;;;1.89;99.88;97737.59;5132827;27;20031;-74
2020/12/05 09:09:39;;;;;;;6.47;2.80;;;;;;;1.93;100.00;97735.06;5132073;27;20058;-74
2020/12/05 09:12:06;;;;;;;7.43;2.88;;;;;;;1.94;99.97;97740.22;5134291;27;20027;-74
2020/12/05 09:14:32;;;;;;;6.38;3.00;;;;;;;1.97;99.89;97738.81;5135917;27;20027;-74
2020/12/05 09:16:57;;;;;;;6.10;2.65;;;;;;;1.98;99.79;97737.72;5127034;27;20360;-74
2020/12/05 09:19:24;;;;;;;5.03;2.67;;;;;;;1.99;99.91;97739.31;5132561;27;20035;-74
2020/12/05 09:21:50;;;;;;;5.38;2.90;;;;;;;2.02;100.00;97741.44;5135321;27;20040;-74
2020/12/05 09:24:15;;;;;;;5.82;2.40;;;;;;;2.04;100.00;97730.22;5136269;27;20157;-74
2020/12/05 09:26:55;;;;;;;4.47;2.35;;;;;;;2.05;100.00;97734.56;5123367;27;20036;-74
2020/12/05 09:29:21;;;;;;;4.20;2.78;;;;;;;2.07;100.00;97724.91;5132646;27;20063;-74
2020/12/05 09:31:51;;;;;;;5.35;2.88;;;;;;;2.09;100.00;97733.66;5136888;27;20061;-74
2020/12/05 09:34:30;;;;;;;6.72;2.80;;;;;;;2.11;100.00;97733.31;5134347;27;20047;-74
2020/12/05 09:36:55;;;;;;;6.63;3.53;;;;;;;2.14;100.00;97738.19;5134425;27;20027;-74
2020/12/05 09:39:21;;;;;;;6.05;3.45;;;;;;;2.16;100.00;97741.44;5132166;27;20091;-74
2020/12/05 09:41:46;;;;;;;7.22;3.30;;;;;;;2.20;100.00;97723.25;5133447;27;20031;-76
2020/12/05 09:44:12;;;;;;;7.28;3.53;;;;;;;2.23;100.00;97737.16;5118120;27;20031;-74
2020/12/05 09:46:37;;;;;;;4.82;2.95;;;;;;;2.29;100.00;97735.13;5128450;27;20071;-74
2020/12/05 09:49:03;;;;;;;4.97;3.00;;;;;;;2.33;100.00;97735.31;5132026;27;20049;-74
2020/12/05 09:51:28;;;;;;;4.78;2.97;;;;;;;2.36;100.00;97734.69;5134774;27;20027;-75
2020/12/05 09:53:54;;;;;;;6.57;3.20;;;;;;;2.38;100.00;97736.00;5116053;27;20094;-74
2020/12/05 09:56:20;;;;;;;5.85;2.75;;;;;;;2.43;100.00;97735.91;5132522;27;20054;-74
2020/12/05 09:58:45;;;;;;;6.00;2.88;;;;;;;2.46;100.00;97738.03;5137940;27;20023;-74
2020/12/05 10:01:11;;;;;;;6.60;3.42;;;;;;;2.52;100.00;97732.44;5136263;27;20061;-74
2020/12/05 10:03:36;;;;;;;6.07;3.40;;;;;;;2.55;100.00;97738.09;5140407;27;20032;-74
2020/12/05 10:06:02;;;;;;;5.35;3.05;;;;;;;2.60;100.00;97731.69;5140413;27;20039;-74
2020/12/05 10:08:28;;;;;;;6.32;3.30;;;;;;;2.64;100.00;97727.19;5137455;27;20042;-73
2020/12/05 10:10:53;;;;;;;10.50;5.65;;;;;;;2.71;100.00;97730.34;5118751;27;20035;-74
2020/12/05 10:13:19;;;;;;;12.32;6.38;;;;;;;2.77;100.00;97731.84;5138577;27;20372;-74
2020/12/05 10:15:45;;;;;;;7.93;4.78;;;;;;;2.83;100.00;97730.59;5121192;27;20030;-74
2020/12/05 10:18:10;;;;;;;9.30;4.40;;;;;;;2.90;100.00;97725.47;5136786;27;20509;-74
2020/12/05 10:20:36;;;;;;;7.93;3.85;;;;;;;2.97;100.00;97736.00;5136794;27;20059;-74
2020/12/05 10:23:01;;;;;;;8.57;4.00;;;;;;;3.03;100.00;97731.19;5138714;27;20027;-74
2020/12/05 10:25:27;;;;;;;7.18;3.63;;;;;;;3.09;100.00;97733.53;5117894;27;20034;-74
2020/12/05 10:27:52;;;;;;;9.25;4.10;;;;;;;3.20;100.00;97738.72;5136950;27;20031;-74
2020/12/05 11:24:06;;;;;;;10.03;4.17;;;;;;;4.03;100.00;97712.28;6096005;23;1002212;-74
2020/12/05 11:26:32;;;;;;;11.02;4.35;;;;;;;4.10;100.00;97711.84;6200391;23;20016;-74
2020/12/05 11:28:57;;;;;;;8.30;3.70;;;;;;;4.18;100.00;97719.28;6227926;23;20444;-74
2020/12/05 11:31:23;;;;;;;10.88;3.75;;;;;;;4.22;99.29;97714.75;6227320;23;20004;-74
2020/12/05 11:33:48;;;;;;;6.57;3.63;;;;;;;4.31;99.22;97714.78;6228028;23;20739;-74
2020/12/05 11:36:14;;;;;;;7.35;3.60;;;;;;;4.37;98.73;97713.47;6228023;23;20008;-74
2020/12/05 11:38:39;;;;;;;7.88;2.65;;;;;;;4.40;97.39;97710.13;6201155;23;20004;-74
2020/12/05 11:41:05;;;;;;;8.48;3.50;;;;;;;4.47;98.48;97707.69;6201078;23;20772;-74
2020/12/05 11:43:31;;;;;;;9.57;3.25;;;;;;;4.55;97.54;97703.31;6228231;23;20016;-74
2020/12/05 11:45:57;;;;;;;5.18;3.10;;;;;;;4.61;97.05;97704.78;6201124;23;20413;-73
2020/12/05 11:48:22;;;;;;;28.75;11.75;;;;;;;4.66;98.23;97710.13;6201562;23;20012;-74
2020/12/05 11:50:48;;;;;;;27.77;11.20;;;;;;;4.76;99.43;97702.66;6201181;23;20054;-74
2020/12/05 11:53:13;;;;;;;22.45;9.48;;;;;;;4.80;99.00;97703.66;6201443;23;20009;-74
2020/12/05 11:55:39;;;;;;;14.50;5.53;;;;;;;4.86;98.96;97705.09;6200638;23;20008;-73
2020/12/05 11:58:05;;;;;;;9.48;4.47;;;;;;;4.91;99.22;97699.44;6176859;23;20012;-75
2020/12/05 12:00:30;;;;;;;9.77;3.97;;;;;;;4.92;97.91;97701.03;6201430;23;20012;-74
2020/12/05 12:02:56;;;;;;;10.00;4.28;;;;;;;4.98;98.04;97698.94;6176552;23;20008;-75
2020/12/05 12:05:22;;;;;;;9.60;4.50;;;;;;;5.00;98.30;97705.72;6176680;23;20004;-75
2020/12/05 12:07:47;;;;;;;9.93;4.88;;;;;;;5.02;98.50;97697.97;6201641;23;20004;-75
2020/12/05 12:10:13;;;;;;;11.23;4.15;;;;;;;5.02;97.86;97703.47;6175888;23;20009;-74
2020/12/05 12:12:40;;;;;;;15.30;4.53;;;;;;;5.05;98.28;97697.31;6201193;23;20034;-75
2020/12/05 12:15:06;;;;;;;17.75;5.03;;;;;;;5.08;98.23;97691.16;6201387;23;20424;-75
2020/12/05 12:17:31;;;;;;;15.18;4.65;;;;;;;5.11;98.65;97693.25;6201695;23;20026;-74
2020/12/05 12:19:57;;;;;;;11.82;4.65;;;;;;;5.14;98.32;97695.34;6169945;23;20012;-75
2020/12/05 12:22:23;;;;;;;12.80;4.32;;;;;;;5.18;99.07;97700.19;6194451;23;20444;-75
2020/12/05 12:24:48;;;;;;;14.18;4.35;;;;;;;5.21;99.15;97700.38;6219895;23;20023;-76
2020/12/05 12:27:14;;;;;;;10.77;4.57;;;;;;;5.22;98.89;97706.66;6169870;23;20015;-75